Time;durP1;ratioP1;P1;durP2;ratioP2;P2;SDS_P1;SDS_P2;PMS_P1;PMS_P2;Temp;Humidity;BMP_temperature;BMP_pressure;BME280_temperature;BME280_humidity;BME280_pressure;Samples;Min_cycle;Max_cycle;Signal;HPM_P1;HPM_P2
2022/11/01 03:00:40;;;;;;;18.43;16.83;;;11.20;99.90;;;;;;5991142;23;20190;31
2022/11/01 03:03:13;;;;;;;17.97;16.47;;;11.30;99.90;;;;;;4868089;29;20226;-82
2022/11/01 03:05:49;;;;;;;17.63;16.13;;;11.30;99.90;;;;;;4867882;29;20217;-83
2022/11/01 03:08:21;;;;;;;17.80;16.30;;;11.20;99.90;;;;;;4873248;29;20199;-83
2022/11/01 03:10:56;;;;;;;17.77;16.30;;;11.30;99.90;;;;;;4871560;29;20233;-82
2022/11/01 03:13:31;;;;;;;19.73;18.20;;;11.30;99.90;;;;;;4865370;29;20209;-83
2022/11/01 03:16:07;;;;;;;19.17;17.60;;;11.30;99.90;;;;;;4863419;29;20229;-82
2022/11/01 03:18:38;;;;;;;20.60;19.07;;;11.30;99.90;;;;;;4871598;29;20340;-82
2022/11/01 03:21:14;;;;;;;19.43;17.80;;;11.20;99.90;;;;;;4871260;29;20298;-82
2022/11/01 03:23:49;;;;;;;18.60;16.90;;;11.20;99.90;;;;;;4866847;29;20202;-82
2022/11/01 03:26:23;;;;;;;19.90;17.97;;;11.30;99.90;;;;;;4868017;29;20231;-82
2022/11/01 03:28:54;;;;;;;18.63;16.70;;;11.30;99.90;;;;;;4865804;29;20230;-82
2022/11/01 03:31:25;;;;;;;18.20;16.50;;;11.30;99.90;;;;;;4859723;29;20232;-83
2022/11/01 03:33:57;;;;;;;16.93;15.53;;;11.30;99.90;;;;;;4863837;29;20279;-82
2022/11/01 03:36:27;;;;;;;17.97;16.47;;;11.40;99.90;;;;;;4868982;29;20700;-82
2022/11/01 03:38:58;;;;;;;17.50;16.10;;;11.40;99.90;;;;;;4862607;29;20554;-82
2022/11/01 03:41:31;;;;;;;17.23;15.83;;;11.50;99.90;;;;;;4870866;29;20227;-84
2022/11/01 03:43:58;;;;;;;15.73;14.63;;;11.60;99.90;;;;;;4867431;29;20221;-81
2022/11/01 03:46:25;;;;;;;16.70;15.50;;;11.60;99.90;;;;;;4870125;29;20199;-82
2022/11/01 03:48:53;;;;;;;17.07;15.57;;;11.60;99.90;;;;;;4869487;29;20281;-82
2022/11/01 03:51:20;;;;;;;16.77;15.37;;;11.70;99.90;;;;;;4867439;29;20226;-81
2022/11/01 03:53:47;;;;;;;16.60;15.30;;;11.70;99.90;;;;;;4862242;29;20762;-80
2022/11/01 03:56:14;;;;;;;17.37;15.83;;;11.80;99.90;;;;;;4867327;29;20200;-84
2022/11/01 03:58:44;;;;;;;17.70;16.17;;;11.80;99.90;;;;;;4861525;29;20205;-83
2022/11/01 04:01:23;;;;;;;17.17;15.57;;;11.80;99.90;;;;;;4868906;29;20330;-82
2022/11/01 04:03:50;;;;;;;15.93;14.73;;;11.80;99.90;;;;;;4865667;29;20266;-81
2022/11/01 04:06:18;;;;;;;16.30;15.00;;;11.80;99.90;;;;;;4869920;29;20201;-81
2022/11/01 04:08:45;;;;;;;17.07;15.33;;;11.90;99.90;;;;;;4863394;29;20221;-81
2022/11/01 04:11:12;;;;;;;15.20;13.90;;;11.90;99.90;;;;;;4862203;29;20230;-81
2022/11/01 04:13:39;;;;;;;13.97;12.87;;;11.90;99.90;;;;;;4858530;29;20576;-81
2022/11/01 04:21:36;;;;;;;12.93;11.77;;;12.00;99.90;;;;;;4850934;29;20215;-82
2022/11/01 04:24:04;;;;;;;11.80;10.60;;;12.00;99.90;;;;;;4856580;29;20209;-81
2022/11/01 04:26:30;;;;;;;14.13;12.73;;;12.00;99.90;;;;;;4871217;29;20261;-82
2022/11/01 04:28:57;;;;;;;12.20;11.20;;;12.00;99.90;;;;;;4858588;29;20596;-82
2022/11/01 04:31:26;;;;;;;10.47;9.50;;;12.00;99.90;;;;;;4867285;29;20730;-82
2022/11/01 04:33:53;;;;;;;11.83;10.07;;;12.00;99.90;;;;;;4862685;29;20204;-82
2022/11/01 04:36:20;;;;;;;13.30;11.87;;;12.00;99.90;;;;;;4857501;29;20390;-82
2022/11/01 04:38:50;;;;;;;13.40;12.10;;;11.90;99.90;;;;;;4864511;29;20260;-82
2022/11/01 04:41:18;;;;;;;14.10;11.13;;;11.90;99.90;;;;;;4861879;29;20302;-82
2022/11/01 04:43:45;;;;;;;10.77;8.63;;;11.90;99.90;;;;;;4862147;29;20204;-81
2022/11/01 04:46:12;;;;;;;9.40;8.40;;;11.90;99.90;;;;;;4861464;29;20208;-82
2022/11/01 04:48:39;;;;;;;10.27;8.17;;;11.90;99.90;;;;;;4862204;29;20209;-82
2022/11/01 04:51:07;;;;;;;8.80;7.90;;;11.90;99.90;;;;;;4863050;29;20728;-82
2022/11/01 04:53:34;;;;;;;8.47;7.57;;;11.90;99.90;;;;;;4874288;29;20206;-82
2022/11/01 04:56:03;;;;;;;9.43;8.10;;;11.90;99.90;;;;;;4864445;29;20219;-81
2022/11/01 04:58:30;;;;;;;8.80;7.73;;;11.90;99.90;;;;;;4863201;29;20291;-81
2022/11/01 05:00:57;;;;;;;8.50;7.60;;;11.90;99.90;;;;;;4866140;29;20237;-81
2022/11/01 05:03:24;;;;;;;9.43;8.40;;;11.90;99.90;;;;;;4848230;29;20212;-80
2022/11/01 05:05:51;;;;;;;10.80;8.23;;;11.90;99.90;;;;;;4870872;29;20333;-80
2022/11/01 05:08:18;;;;;;;8.97;8.03;;;11.90;99.90;;;;;;4866369;29;20207;-81
2022/11/01 05:10:45;;;;;;;9.13;7.63;;;11.90;99.90;;;;;;4868235;29;20607;-82
2022/11/01 05:13:13;;;;;;;11.27;8.20;;;12.00;99.90;;;;;;4858139;29;20235;-81
2022/11/01 05:15:40;;;;;;;10.37;8.27;;;12.00;99.90;;;;;;4869267;29;20210;-81
2022/11/01 05:18:07;;;;;;;9.30;7.87;;;12.00;99.90;;;;;;4870901;29;20237;-81
2022/11/01 05:20:34;;;;;;;10.33;7.70;;;12.00;99.90;;;;;;4868513;29;20201;-81
2022/11/01 05:23:03;;;;;;;9.33;7.50;;;12.10;99.90;;;;;;4872009;29;20190;-81
2022/11/01 05:25:30;;;;;;;9.27;7.20;;;12.10;99.90;;;;;;4856819;29;20561;-80
2022/11/01 05:28:03;;;;;;;8.77;6.73;;;12.10;99.90;;;;;;4854858;29;20242;-84
2022/11/01 05:30:32;;;;;;;10.43;9.53;;;12.10;99.90;;;;;;4857761;29;20219;-82
2022/11/01 05:33:00;;;;;;;8.30;5.73;;;12.20;99.90;;;;;;4864446;29;20206;-83
2022/11/01 05:35:28;;;;;;;6.13;5.40;;;12.20;99.90;;;;;;4871282;29;20199;-83
2022/11/01 05:37:55;;;;;;;9.70;6.60;;;12.20;99.90;;;;;;4863688;29;20212;-83
2022/11/01 05:40:23;;;;;;;7.47;6.23;;;12.20;99.90;;;;;;4866736;29;20216;-82
2022/11/01 05:42:50;;;;;;;6.40;5.63;;;12.20;99.90;;;;;;4862993;29;20200;-82
2022/11/01 05:45:17;;;;;;;5.87;5.27;;;12.30;99.90;;;;;;4871224;29;20700;-82
2022/11/01 05:47:45;;;;;;;6.53;5.60;;;12.30;99.90;;;;;;4868802;29;20197;-83
2022/11/01 05:50:14;;;;;;;8.37;7.57;;;12.30;99.90;;;;;;4862674;29;20339;-82
2022/11/01 05:52:42;;;;;;;7.13;5.10;;;12.40;99.90;;;;;;4866651;29;20579;-83
2022/11/01 05:55:09;;;;;;;5.80;5.20;;;12.40;99.90;;;;;;4867464;29;20201;-83
2022/11/01 05:57:36;;;;;;;6.70;6.07;;;12.40;99.90;;;;;;4865062;29;20550;-83
2022/11/01 06:00:04;;;;;;;14.80;13.67;;;12.50;99.90;;;;;;4867121;29;20202;-83
2022/11/01 06:02:38;;;;;;;13.17;12.03;;;12.50;99.90;;;;;;4869098;29;20289;-83
2022/11/01 06:05:07;;;;;;;8.57;6.10;;;12.50;99.90;;;;;;4872003;29;20216;-83
2022/11/01 06:07:35;;;;;;;7.53;5.97;;;12.50;99.90;;;;;;4861407;29;20299;-83
2022/11/01 06:10:03;;;;;;;9.33;5.27;;;12.40;99.90;;;;;;4858132;29;20229;-82
2022/11/01 06:12:30;;;;;;;8.77;5.90;;;12.40;99.90;;;;;;4867866;29;20618;-83
2022/11/01 06:14:57;;;;;;;7.03;5.53;;;12.40;99.90;;;;;;4869791;29;20669;-84
2022/11/01 06:17:24;;;;;;;8.23;6.23;;;12.40;99.90;;;;;;4870536;29;20675;-83
2022/11/01 06:19:51;;;;;;;8.87;6.23;;;12.40;99.90;;;;;;4864730;29;20709;-82
2022/11/01 06:22:19;;;;;;;7.47;6.27;;;12.40;99.90;;;;;;4864856;29;20267;-83
2022/11/01 06:24:46;;;;;;;7.73;6.30;;;12.40;99.90;;;;;;4860547;29;20631;-83
2022/11/01 06:27:13;;;;;;;7.70;6.07;;;12.40;99.90;;;;;;4867733;29;20270;-83
2022/11/01 06:29:40;;;;;;;7.27;6.57;;;12.40;99.90;;;;;;4869320;29;20570;-83
2022/11/01 06:32:06;;;;;;;9.43;8.63;;;12.50;99.90;;;;;;4862972;29;20241;-83
2022/11/01 06:34:33;;;;;;;8.53;7.83;;;12.50;99.90;;;;;;4873583;29;20245;-82
2022/11/01 06:37:01;;;;;;;5.50;5.00;;;12.60;99.90;;;;;;4870143;29;20268;-83
2022/11/01 06:39:29;;;;;;;6.43;5.83;;;12.70;99.90;;;;;;4848919;29;20280;-83
2022/11/01 06:41:56;;;;;;;7.23;4.20;;;12.80;99.90;;;;;;4872640;29;20281;-83
2022/11/01 06:44:23;;;;;;;4.80;4.30;;;12.90;99.90;;;;;;4872481;29;20217;-83
2022/11/01 06:46:49;;;;;;;4.20;3.80;;;12.90;99.90;;;;;;4868994;29;20624;-83
2022/11/01 06:49:16;;;;;;;5.30;4.33;;;13.00;99.90;;;;;;4870596;29;20206;-82
2022/11/01 06:51:43;;;;;;;13.57;12.73;;;13.00;99.90;;;;;;4850687;29;20226;-82
2022/11/01 06:54:10;;;;;;;6.03;4.20;;;13.10;99.90;;;;;;4866793;29;20209;-82
2022/11/01 06:56:39;;;;;;;13.43;12.60;;;13.10;99.90;;;;;;4871696;29;20265;-81
2022/11/01 06:59:06;;;;;;;12.13;11.33;;;13.10;99.90;;;;;;4866257;29;20212;-81
2022/11/01 07:01:33;;;;;;;4.53;4.00;;;13.10;99.90;;;;;;4867131;29;20233;-81
2022/11/01 07:04:00;;;;;;;11.93;11.20;;;13.20;99.90;;;;;;4868407;29;20205;-84
2022/11/01 07:06:29;;;;;;;12.93;12.13;;;13.20;99.90;;;;;;4856707;29;20675;-80
2022/11/01 07:08:57;;;;;;;5.03;4.43;;;13.20;99.90;;;;;;4859035;29;20284;-81
2022/11/01 07:11:24;;;;;;;4.60;4.20;;;13.20;99.90;;;;;;4848678;29;20233;-84
2022/11/01 07:13:52;;;;;;;4.33;3.93;;;13.30;99.90;;;;;;4850486;29;20206;-81
2022/11/01 07:16:19;;;;;;;4.37;3.97;;;13.30;99.90;;;;;;4869749;29;20220;-80
2022/11/01 07:18:46;;;;;;;4.37;4.00;;;13.40;99.90;;;;;;4861883;29;20690;-80
2022/11/01 07:21:12;;;;;;;3.97;3.67;;;13.40;99.90;;;;;;4860188;29;20229;-80
2022/11/01 07:23:39;;;;;;;4.00;3.70;;;13.50;99.90;;;;;;4868088;29;20205;-79
2022/11/01 07:26:06;;;;;;;12.90;12.10;;;13.60;99.90;;;;;;4864547;29;20206;-79
2022/11/01 07:28:33;;;;;;;12.00;11.30;;;13.70;99.90;;;;;;4861247;29;20560;-81
2022/11/01 07:31:02;;;;;;;11.10;10.50;;;13.80;99.90;;;;;;4867125;29;20229;-83
2022/11/01 07:33:29;;;;;;;4.13;3.83;;;14.00;99.90;;;;;;4870101;29;20221;-80
2022/11/01 07:35:56;;;;;;;7.03;6.63;;;14.10;99.90;;;;;;4868324;29;20210;-80
2022/11/01 07:38:22;;;;;;;11.20;10.60;;;14.20;99.90;;;;;;4863825;29;20213;-80
2022/11/01 07:40:51;;;;;;;10.70;10.10;;;14.30;99.90;;;;;;4867531;29;20217;-80
2022/11/01 07:43:18;;;;;;;11.67;11.07;;;14.40;99.90;;;;;;4861687;29;20209;-81
2022/11/01 07:45:45;;;;;;;11.20;10.60;;;14.40;99.90;;;;;;4855603;29;20209;-79
2022/11/01 07:48:15;;;;;;;2.93;2.80;;;14.50;99.90;;;;;;4864610;29;20197;-80
2022/11/01 07:50:43;;;;;;;9.83;9.30;;;14.60;99.90;;;;;;4867007;29;20233;-81
2022/11/01 07:53:12;;;;;;;11.77;11.07;;;14.60;99.90;;;;;;4864478;29;20682;-80
2022/11/01 07:55:39;;;;;;;9.83;9.33;;;14.70;99.90;;;;;;4859785;29;20293;-82
2022/11/01 07:58:06;;;;;;;10.20;9.60;;;14.70;99.90;;;;;;4866053;29;20207;-80
2022/11/01 08:00:34;;;;;;;8.77;8.27;;;14.90;99.90;;;;;;4864970;29;20956;-82
2022/11/01 08:03:01;;;;;;;7.33;6.93;;;14.90;99.90;;;;;;4871839;29;20281;-80
2022/11/01 08:05:30;;;;;;;8.13;7.63;;;15.00;99.90;;;;;;4854716;29;20239;-81
2022/11/01 08:07:57;;;;;;;7.47;7.07;;;15.10;99.90;;;;;;4867850;29;20209;-89
2022/11/01 08:10:25;;;;;;;8.87;8.37;;;15.20;99.90;;;;;;4854008;29;20220;-86
2022/11/01 08:12:52;;;;;;;7.40;7.00;;;15.20;99.90;;;;;;4848664;29;20562;-81
2022/11/01 08:15:19;;;;;;;6.47;6.10;;;15.30;99.90;;;;;;4861978;29;20495;-81
2022/11/01 08:17:46;;;;;;;5.90;5.60;;;15.40;99.90;;;;;;4869320;29;20203;-85
2022/11/01 08:20:13;;;;;;;6.90;6.50;;;15.50;99.90;;;;;;4862293;29;20204;-82
2022/11/01 08:22:41;;;;;;;6.67;6.30;;;15.60;99.90;;;;;;4873752;29;20257;-81
2022/11/01 08:25:08;;;;;;;6.67;6.37;;;15.70;99.90;;;;;;4864301;29;20258;-80
2022/11/01 08:27:35;;;;;;;8.33;7.83;;;15.70;99.90;;;;;;4863655;29;20699;-80
2022/11/01 08:30:02;;;;;;;7.37;6.97;;;15.80;99.90;;;;;;4862229;29;20251;-80
2022/11/01 08:32:29;;;;;;;6.80;6.40;;;15.90;99.90;;;;;;4865478;29;20227;-80
2022/11/01 08:34:56;;;;;;;3.20;3.00;;;15.90;99.90;;;;;;4867173;29;20217;-83
2022/11/01 08:37:23;;;;;;;6.80;6.40;;;16.00;99.90;;;;;;4860659;29;20220;-85
2022/11/01 08:39:51;;;;;;;4.67;4.37;;;16.00;99.90;;;;;;4862138;29;20209;-85
2022/11/01 08:42:18;;;;;;;4.00;3.80;;;16.10;99.90;;;;;;4857499;29;20234;-85
2022/11/01 08:44:45;;;;;;;4.33;4.13;;;16.20;99.90;;;;;;4863462;29;20205;-82
2022/11/01 08:47:12;;;;;;;4.10;3.80;;;16.30;99.90;;;;;;4864247;29;20198;-82
2022/11/01 08:49:39;;;;;;;2.60;2.40;;;16.40;99.90;;;;;;4864317;29;20201;-82
2022/11/01 08:52:06;;;;;;;2.60;2.50;;;16.40;99.90;;;;;;4865076;29;20448;-82
2022/11/01 08:54:33;;;;;;;2.40;2.30;;;16.50;99.90;;;;;;4863549;29;20201;-82
2022/11/01 08:57:02;;;;;;;2.57;2.40;;;16.60;99.90;;;;;;4873416;29;20741;-82
2022/11/01 08:59:29;;;;;;;2.40;2.30;;;16.60;99.90;;;;;;4864058;29;20272;-81
2022/11/01 09:01:56;;;;;;;5.97;5.63;;;16.70;99.90;;;;;;4865781;29;20241;-82
2022/11/01 09:04:23;;;;;;;6.00;5.63;;;16.80;99.90;;;;;;4861477;29;20205;-82
2022/11/01 09:06:49;;;;;;;5.90;5.60;;;16.80;99.90;;;;;;4849690;29;20201;-81
2022/11/01 09:09:16;;;;;;;6.57;6.27;;;16.80;99.90;;;;;;4868351;29;20205;-82
2022/11/01 09:11:43;;;;;;;6.70;6.30;;;16.80;99.90;;;;;;4859310;29;20230;-82
2022/11/01 09:14:11;;;;;;;7.30;6.90;;;16.90;99.90;;;;;;4866145;29;20212;-82
2022/11/01 09:16:38;;;;;;;6.93;6.53;;;16.90;99.90;;;;;;4850935;29;20687;-82
2022/11/01 09:19:05;;;;;;;7.00;6.60;;;16.90;99.90;;;;;;4854661;29;20214;-82
2022/11/01 09:21:32;;;;;;;8.00;7.50;;;16.90;99.90;;;;;;4858652;29;20217;-82
2022/11/01 09:23:59;;;;;;;7.60;7.10;;;16.90;99.90;;;;;;4858451;29;20228;-79
2022/11/01 09:26:27;;;;;;;7.27;6.87;;;16.90;99.90;;;;;;4843237;29;20282;-80
2022/11/01 09:28:57;;;;;;;6.80;6.40;;;16.90;99.90;;;;;;4847402;29;20216;-81
2022/11/01 09:31:25;;;;;;;6.00;5.70;;;16.90;99.90;;;;;;4854415;29;20245;-81
2022/11/01 09:33:54;;;;;;;5.30;5.00;;;17.00;99.90;;;;;;4849664;29;20204;-81
2022/11/01 09:36:22;;;;;;;4.73;4.50;;;17.00;99.90;;;;;;4849282;29;20218;-81
2022/11/01 09:38:48;;;;;;;4.97;4.67;;;17.20;99.90;;;;;;4848463;29;20234;-80
2022/11/01 09:41:25;;;;;;;4.53;4.20;;;17.30;99.90;;;;;;4852601;29;20582;-80
2022/11/01 09:43:54;;;;;;;4.40;4.13;;;17.50;99.90;;;;;;4861921;29;20203;-80
2022/11/01 09:46:25;;;;;;;4.30;4.10;;;17.70;99.90;;;;;;4856009;29;20209;-80
2022/11/01 09:48:55;;;;;;;4.30;4.00;;;17.90;99.90;;;;;;4861272;29;20195;-82
2022/11/01 09:51:24;;;;;;;2.90;2.70;;;17.90;99.90;;;;;;4856666;29;20237;-82
2022/11/01 09:53:54;;;;;;;3.27;3.07;;;17.90;99.90;;;;;;4867530;29;20708;-83
2022/11/01 09:56:26;;;;;;;3.00;2.80;;;17.90;99.90;;;;;;4870492;29;20202;-85
2022/11/01 09:59:01;;;;;;;2.60;2.50;;;17.90;99.90;;;;;;4860663;29;20207;-84
2022/11/01 10:01:40;;;;;;;7.70;7.30;;;18.00;99.90;;;;;;4864677;29;20265;-84
2022/11/01 10:04:43;;;;;;;2.00;1.90;;;18.20;99.90;;;;;;4865753;29;20215;-84
2022/11/01 10:07:18;;;;;;;9.20;8.60;;;18.30;99.90;;;;;;4852247;29;20227;-84
2022/11/01 10:09:54;;;;;;;8.00;7.60;;;18.30;99.90;;;;;;4867767;29;20209;-84
2022/11/01 10:12:37;;;;;;;8.60;8.10;;;18.30;99.90;;;;;;4870294;29;20265;-84
2022/11/01 10:15:24;;;;;;;8.10;7.70;;;18.40;99.90;;;;;;4868205;29;20203;-84
2022/11/01 10:17:53;;;;;;;7.00;6.60;;;18.60;99.90;;;;;;4869564;29;20200;-84
2022/11/01 10:20:25;;;;;;;2.10;2.00;;;18.80;99.90;;;;;;4866675;29;20196;-84
2022/11/01 10:22:52;;;;;;;8.00;7.60;;;19.10;99.90;;;;;;4871001;29;20205;-84
2022/11/01 10:25:22;;;;;;;2.00;1.90;;;19.40;99.90;;;;;;4866967;29;20638;-83
2022/11/01 10:28:01;;;;;;;2.20;2.10;;;19.60;99.90;;;;;;4872117;29;20205;-84
2022/11/01 10:30:31;;;;;;;2.30;2.10;;;19.70;99.90;;;;;;4874911;29;20205;-84
2022/11/01 10:33:02;;;;;;;2.40;2.30;;;19.80;99.90;;;;;;4860694;29;20214;-85
2022/11/01 10:35:34;;;;;;;2.30;2.10;;;19.70;99.90;;;;;;4870083;29;20209;-84
2022/11/01 10:38:07;;;;;;;2.20;2.10;;;19.60;99.90;;;;;;4861680;29;20206;-85
2022/11/01 10:40:38;;;;;;;5.27;4.97;;;19.50;99.90;;;;;;4869150;29;20201;-84
2022/11/01 10:43:13;;;;;;;2.80;2.70;;;19.40;99.90;;;;;;4866849;29;20221;-84
2022/11/01 10:45:42;;;;;;;3.60;3.30;;;19.50;99.90;;;;;;4875529;29;20220;-83
2022/11/01 10:48:16;;;;;;;5.80;5.50;;;19.50;99.90;;;;;;4863793;29;20206;-84
2022/11/01 10:50:44;;;;;;;2.70;2.60;;;19.40;99.90;;;;;;4872251;29;20230;-84
2022/11/01 10:53:13;;;;;;;2.63;2.53;;;19.40;99.90;;;;;;4863447;29;20206;-84
2022/11/01 10:55:44;;;;;;;2.63;1.93;;;19.40;99.90;;;;;;4858869;29;20620;-84
2022/11/01 10:58:20;;;;;;;2.87;2.20;;;19.40;99.90;;;;;;4866717;29;20702;-84
2022/11/01 11:00:48;;;;;;;2.03;1.93;;;19.40;99.90;;;;;;4865488;29;20232;-84
2022/11/01 11:03:21;;;;;;;6.00;5.60;;;19.40;99.90;;;;;;4866869;29;20682;-85
2022/11/01 11:05:51;;;;;;;2.10;2.00;;;19.40;99.90;;;;;;4868119;29;20673;-84
2022/11/01 11:08:22;;;;;;;4.60;4.30;;;19.50;99.90;;;;;;4867734;29;20294;-84
2022/11/01 11:10:50;;;;;;;3.93;3.63;;;19.50;99.90;;;;;;4870293;29;20583;-84
2022/11/01 11:13:20;;;;;;;2.20;2.10;;;19.50;99.90;;;;;;4867460;29;20205;-83
2022/11/01 11:15:51;;;;;;;2.20;2.00;;;19.50;99.90;;;;;;4859882;29;20210;-86
2022/11/01 11:18:24;;;;;;;2.43;2.10;;;19.50;99.90;;;;;;4872376;29;20228;-86
2022/11/01 11:20:56;;;;;;;2.63;2.43;;;19.40;99.90;;;;;;4858537;29;20226;-86
2022/11/01 11:23:25;;;;;;;2.33;2.10;;;19.40;99.90;;;;;;4873179;29;20662;-86
2022/11/01 11:25:52;;;;;;;2.07;1.97;;;19.40;99.90;;;;;;4867798;29;20213;-86
2022/11/01 11:28:24;;;;;;;2.10;2.00;;;19.50;99.90;;;;;;4875340;29;20209;-85
2022/11/01 11:30:51;;;;;;;2.33;2.13;;;19.40;99.90;;;;;;4862179;29;20229;-85
2022/11/01 11:33:19;;;;;;;2.20;2.10;;;19.40;99.90;;;;;;4862266;29;20221;-86
2022/11/01 11:35:58;;;;;;;2.23;2.13;;;19.50;99.90;;;;;;4869250;29;20569;-86
2022/11/01 11:38:43;;;;;;;2.17;2.07;;;19.50;99.90;;;;;;4870863;29;20697;-86
2022/11/01 11:41:11;;;;;;;2.10;2.00;;;19.50;99.90;;;;;;4865207;29;20225;-81
2022/11/01 11:43:40;;;;;;;2.43;2.30;;;19.40;99.90;;;;;;4862711;29;20757;-84
2022/11/01 11:46:13;;;;;;;3.70;2.43;;;19.40;99.90;;;;;;4867644;29;20608;-83
2022/11/01 11:48:48;;;;;;;2.50;2.30;;;19.40;99.90;;;;;;4857321;29;20207;-84
2022/11/01 11:51:17;;;;;;;2.30;2.10;;;19.30;99.90;;;;;;4855608;29;20228;-83
2022/11/01 11:53:44;;;;;;;2.30;2.10;;;19.30;99.90;;;;;;4855268;29;20206;-84
2022/11/01 11:56:12;;;;;;;2.80;2.30;;;19.10;99.90;;;;;;4865032;29;20209;-85
2022/11/01 11:58:42;;;;;;;2.40;2.20;;;19.10;99.90;;;;;;4858383;29;20212;-83
2022/11/01 12:01:11;;;;;;;4.23;2.23;;;19.00;99.90;;;;;;4856119;29;20240;-83
2022/11/01 12:03:47;;;;;;;2.50;2.30;;;19.10;99.90;;;;;;4854534;29;20269;-83
2022/11/01 12:06:19;;;;;;;2.20;2.10;;;19.10;99.90;;;;;;4860491;29;20727;-83
2022/11/01 12:08:48;;;;;;;3.03;2.50;;;19.00;99.90;;;;;;4850824;29;20316;-83
2022/11/01 12:11:16;;;;;;;3.73;3.10;;;19.00;99.90;;;;;;4845638;29;20241;-84
2022/11/01 12:13:45;;;;;;;3.40;3.20;;;19.00;99.90;;;;;;4848322;29;20206;-83
2022/11/01 12:16:19;;;;;;;3.07;2.80;;;19.00;99.90;;;;;;4848972;29;20626;-83
2022/11/01 12:18:53;;;;;;;5.73;5.33;;;19.00;99.90;;;;;;4845306;29;20210;-83
2022/11/01 12:21:25;;;;;;;7.30;6.90;;;19.10;99.90;;;;;;4860441;29;20231;-84
2022/11/01 12:23:57;;;;;;;8.40;7.90;;;19.00;99.90;;;;;;4848043;29;20202;-84
2022/11/01 12:26:27;;;;;;;9.07;8.53;;;19.00;99.90;;;;;;4844284;29;20213;-83
2022/11/01 12:29:01;;;;;;;7.40;6.90;;;19.00;99.90;;;;;;4842693;29;20745;-82
2022/11/01 12:31:29;;;;;;;5.30;4.90;;;19.00;99.90;;;;;;4858091;29;20259;-83
2022/11/01 12:34:03;;;;;;;6.97;6.47;;;19.10;99.90;;;;;;4852813;29;20763;-83
2022/11/01 12:36:35;;;;;;;6.17;5.83;;;19.10;99.90;;;;;;4878658;29;20221;-83
2022/11/01 12:39:18;;;;;;;6.33;5.77;;;19.30;99.90;;;;;;4867002;29;20204;-81
2022/11/01 12:41:51;;;;;;;8.10;7.60;;;19.20;99.90;;;;;;4868296;29;20752;-82
2022/11/01 12:44:32;;;;;;;7.67;7.10;;;19.20;99.90;;;;;;4853599;29;20278;-84
2022/11/01 12:47:05;;;;;;;3.30;3.10;;;19.10;99.90;;;;;;4865221;29;20213;-82
2022/11/01 12:49:40;;;;;;;8.27;7.67;;;19.10;99.90;;;;;;4843814;29;20599;-84
2022/11/01 12:52:14;;;;;;;8.17;7.67;;;19.10;99.90;;;;;;4878085;29;20692;-83
2022/11/01 12:54:46;;;;;;;6.53;6.13;;;19.10;99.90;;;;;;4868671;29;20208;-81
2022/11/01 12:57:15;;;;;;;8.30;7.60;;;19.10;99.90;;;;;;4864628;29;20216;-83
2022/11/01 12:59:43;;;;;;;7.67;7.07;;;19.10;99.90;;;;;;4873588;29;20207;-86
2022/11/01 13:02:26;;;;;;;4.27;3.10;;;19.00;99.90;;;;;;4861392;29;20236;-83
2022/11/01 13:04:58;;;;;;;3.60;3.13;;;18.90;99.90;;;;;;4880594;29;20204;-82
2022/11/01 13:07:37;;;;;;;7.97;7.47;;;18.80;99.90;;;;;;4871216;29;20200;-81
2022/11/01 13:10:12;;;;;;;3.43;2.60;;;18.80;99.90;;;;;;4871977;29;20235;-83
2022/11/01 13:12:48;;;;;;;2.77;2.13;;;18.70;99.90;;;;;;4872032;29;20222;-82
2022/11/01 13:15:20;;;;;;;9.13;8.47;;;18.60;99.90;;;;;;4865310;29;20280;-83
2022/11/01 13:17:54;;;;;;;8.13;7.50;;;18.60;99.90;;;;;;4856633;29;20213;-79
2022/11/01 13:20:32;;;;;;;7.60;7.10;;;18.60;99.90;;;;;;4868497;29;20336;-80
2022/11/01 13:23:10;;;;;;;8.60;7.90;;;18.50;99.90;;;;;;4865891;29;20221;-78
2022/11/01 13:25:41;;;;;;;2.70;2.50;;;18.50;99.90;;;;;;4854475;29;20691;-81
2022/11/01 13:28:26;;;;;;;2.30;2.10;;;18.50;99.90;;;;;;4868267;29;20213;-80
2022/11/01 13:31:00;;;;;;;4.90;4.57;;;18.60;99.90;;;;;;4866830;29;20717;-81
2022/11/01 13:33:35;;;;;;;2.40;2.20;;;18.70;99.90;;;;;;4866487;29;20615;-81
2022/11/01 13:36:11;;;;;;;2.80;2.30;;;18.80;99.90;;;;;;4851212;29;20683;-81
2022/11/01 13:38:46;;;;;;;2.47;2.27;;;18.90;99.90;;;;;;4860706;29;20258;-83
2022/11/01 13:41:20;;;;;;;3.00;2.30;;;18.90;99.90;;;;;;4857637;29;20228;-84
2022/11/01 13:43:52;;;;;;;2.67;2.30;;;18.90;99.90;;;;;;4851880;29;20201;-81
2022/11/01 13:46:49;;;;;;;3.20;2.40;;;18.70;99.90;;;;;;4855954;29;20265;-81
2022/11/01 13:49:50;;;;;;;6.30;5.80;;;18.60;99.90;;;;;;4840677;29;20261;-82
2022/11/01 13:52:20;;;;;;;6.07;2.70;;;18.50;99.90;;;;;;4854500;29;20242;-82
2022/11/01 13:54:55;;;;;;;2.40;2.13;;;18.50;99.90;;;;;;4859742;29;20208;-82
2022/11/01 13:57:24;;;;;;;3.03;2.40;;;18.60;99.90;;;;;;4861292;29;20211;-83
2022/11/01 13:59:56;;;;;;;3.67;2.43;;;18.60;99.90;;;;;;4862428;29;20202;-83
2022/11/01 14:02:56;;;;;;;2.83;2.20;;;18.60;99.90;;;;;;4867683;29;20235;-83
2022/11/01 14:05:37;;;;;;;4.83;4.43;;;18.60;99.90;;;;;;4863124;29;20197;-82
2022/11/01 14:08:36;;;;;;;6.97;6.43;;;18.50;99.90;;;;;;4853289;29;20634;-83
2022/11/01 14:11:05;;;;;;;7.97;7.37;;;18.40;99.90;;;;;;4857376;29;20224;-81
2022/11/01 14:13:38;;;;;;;8.53;7.83;;;18.30;99.90;;;;;;4870399;29;20220;-84
2022/11/01 14:16:26;;;;;;;7.80;7.30;;;18.30;99.90;;;;;;4870725;29;20199;-83
2022/11/01 14:19:20;;;;;;;2.40;2.20;;;18.20;99.90;;;;;;4869326;29;20196;-82
2022/11/01 14:21:51;;;;;;;3.33;2.27;;;18.20;99.90;;;;;;4839370;29;20259;-82
2022/11/01 14:24:28;;;;;;;2.50;2.10;;;18.10;99.90;;;;;;4874773;29;20710;-79
2022/11/01 14:27:22;;;;;;;2.53;2.10;;;18.10;99.90;;;;;;4860630;29;20215;-81
2022/11/01 14:29:51;;;;;;;5.17;4.73;;;17.90;99.90;;;;;;4860587;29;20210;-83
2022/11/01 14:32:19;;;;;;;2.20;2.10;;;17.90;99.90;;;;;;4866267;29;20221;-81
2022/11/01 14:34:58;;;;;;;4.53;4.23;;;17.80;99.90;;;;;;4864900;29;20209;-81
2022/11/01 14:37:28;;;;;;;5.43;5.00;;;17.70;99.90;;;;;;4873887;29;20220;-83
2022/11/01 14:40:14;;;;;;;2.40;2.20;;;17.70;99.90;;;;;;4867785;29;20263;-82
2022/11/01 14:42:46;;;;;;;5.77;5.27;;;17.70;99.90;;;;;;4869362;29;20209;-83
2022/11/01 14:45:27;;;;;;;4.70;3.17;;;17.80;99.90;;;;;;4862730;29;20218;-82
2022/11/01 14:47:58;;;;;;;9.10;8.50;;;17.70;99.90;;;;;;4865499;29;20206;-83
2022/11/01 14:50:32;;;;;;;8.97;8.23;;;17.70;99.90;;;;;;4861376;29;20272;-81
2022/11/01 14:53:06;;;;;;;6.20;5.70;;;17.70;99.90;;;;;;4868867;29;20228;-82
2022/11/01 14:55:35;;;;;;;2.50;2.20;;;17.70;99.90;;;;;;4867385;29;20204;-82
2022/11/01 14:58:21;;;;;;;2.80;1.97;;;17.70;99.90;;;;;;4866206;29;20632;-82
2022/11/01 15:00:50;;;;;;;3.57;2.40;;;17.70;99.90;;;;;;4864364;29;20282;-82
2022/11/01 15:03:18;;;;;;;6.40;6.00;;;17.70;99.90;;;;;;4864972;29;20273;-82
2022/11/01 15:05:51;;;;;;;2.60;2.30;;;17.70;99.90;;;;;;4866508;29;20198;-81
2022/11/01 15:08:31;;;;;;;2.57;2.37;;;17.60;99.90;;;;;;4867836;29;20209;-79
2022/11/01 15:11:01;;;;;;;2.67;2.40;;;17.60;99.90;;;;;;4869592;29;20769;-81
2022/11/01 15:13:32;;;;;;;2.40;2.20;;;17.50;99.90;;;;;;4864458;29;20221;-81
2022/11/01 15:16:05;;;;;;;9.77;9.00;;;17.50;99.90;;;;;;4856054;29;20206;-81
2022/11/01 15:18:59;;;;;;;4.33;3.93;;;17.40;99.90;;;;;;4865996;29;20301;-86
2022/11/01 15:21:29;;;;;;;2.40;2.20;;;17.50;99.90;;;;;;4860916;29;20236;-85
2022/11/01 15:24:01;;;;;;;4.53;4.13;;;17.40;99.90;;;;;;4862435;29;20285;-82
2022/11/01 15:26:34;;;;;;;3.00;2.60;;;17.40;99.90;;;;;;4853566;29;20201;-82
2022/11/01 15:29:04;;;;;;;4.47;4.10;;;17.40;99.90;;;;;;4869466;29;20209;-82
2022/11/01 15:31:33;;;;;;;2.60;2.20;;;17.30;99.90;;;;;;4870382;29;20223;-81
2022/11/01 15:34:04;;;;;;;2.40;2.00;;;17.20;99.90;;;;;;4856722;29;20224;-83
2022/11/01 15:36:36;;;;;;;6.77;6.17;;;17.10;99.90;;;;;;4857442;29;20201;-81
2022/11/01 15:39:16;;;;;;;5.63;5.27;;;17.00;99.90;;;;;;4854633;29;20254;-82
2022/11/01 15:41:42;;;;;;;8.67;8.17;;;16.80;99.90;;;;;;4866600;29;20893;-82
2022/11/01 15:44:21;;;;;;;7.13;6.73;;;16.70;99.90;;;;;;4865079;29;20581;-83
2022/11/01 15:46:49;;;;;;;7.43;6.93;;;16.60;99.90;;;;;;4868132;29;20218;-82
2022/11/01 15:49:20;;;;;;;10.30;9.70;;;16.50;99.90;;;;;;4867472;29;20201;-83
2022/11/01 15:51:52;;;;;;;8.67;8.07;;;16.40;99.90;;;;;;4865106;29;20595;-83
2022/11/01 15:54:28;;;;;;;8.73;8.13;;;16.30;99.90;;;;;;4864868;29;20208;-83
2022/11/01 15:56:57;;;;;;;8.53;7.93;;;16.20;99.90;;;;;;4863397;29;20228;-82
2022/11/01 15:59:29;;;;;;;9.57;8.87;;;16.00;99.90;;;;;;4863715;29;20197;-81
2022/11/01 16:01:59;;;;;;;8.97;8.30;;;15.90;99.90;;;;;;4866099;29;20233;-82
2022/11/01 16:04:31;;;;;;;8.07;7.57;;;15.90;99.90;;;;;;4864832;29;20579;-82
2022/11/01 16:07:02;;;;;;;8.70;8.10;;;15.70;99.90;;;;;;4870799;29;20675;-82